Time;durP1;ratioP1;P1;durP2;ratioP2;P2;SDS_P1;SDS_P2;PMS_P1;PMS_P2;Temp;Humidity;BMP_temperature;BMP_pressure;BME280_temperature;BME280_humidity;BME280_pressure;Samples;Min_cycle;Max_cycle;Signal;HPM_P1;HPM_P2
2022/11/06 00:00:14;;;;;;;10.02;5.03;;;;;;;8.54;91.70;101416.09;5131319;28;20022;-55
2022/11/06 00:02:39;;;;;;;14.52;5.30;;;;;;;8.54;91.71;101425.84;5131654;28;20011;-53
2022/11/06 00:07:50;;;;;;;12.75;5.20;;;;;;;8.51;91.72;101416.31;5132993;28;20084;-54
2022/11/06 00:10:16;;;;;;;12.82;5.50;;;;;;;8.48;91.59;101419.97;5129787;27;20036;-51
2022/11/06 00:12:41;;;;;;;11.07;5.43;;;;;;;8.47;91.62;101418.25;5132161;27;20020;-56
2022/11/06 00:15:07;;;;;;;10.80;5.28;;;;;;;8.46;91.51;101420.97;5124238;27;20040;-56
2022/11/06 00:17:32;;;;;;;15.45;4.93;;;;;;;8.44;91.83;101418.47;5122720;28;20030;-54
2022/11/06 00:19:58;;;;;;;10.93;5.15;;;;;;;8.42;91.65;101417.63;5132857;28;20020;-53
2022/11/06 00:22:23;;;;;;;13.05;5.07;;;;;;;8.41;91.83;101409.78;5120051;27;20028;-56
2022/11/06 00:24:48;;;;;;;9.95;4.75;;;;;;;8.38;91.70;101410.81;5129033;28;20040;-52
2022/11/06 00:27:14;;;;;;;10.55;4.72;;;;;;;8.33;91.89;101397.84;5131040;28;20065;-52
2022/11/06 00:29:40;;;;;;;11.52;4.80;;;;;;;8.34;92.05;101407.50;5137380;28;20015;-51
2022/11/06 00:32:05;;;;;;;11.98;5.00;;;;;;;8.32;91.94;101404.09;5135240;28;20033;-54
2022/11/06 00:34:31;;;;;;;15.85;5.00;;;;;;;8.29;92.17;101398.13;5135663;28;20030;-52
2022/11/06 00:36:56;;;;;;;18.02;5.15;;;;;;;8.27;92.13;101398.19;5136114;28;20028;-56
2022/11/06 00:39:22;;;;;;;13.52;5.15;;;;;;;8.24;92.31;101385.16;5124243;28;20075;-52
2022/11/06 00:41:47;;;;;;;11.38;4.57;;;;;;;8.23;92.31;101379.97;5136546;28;20084;-53
2022/11/06 00:44:13;;;;;;;10.18;4.60;;;;;;;8.21;92.59;101380.06;5136654;28;20040;-52
2022/11/06 00:46:38;;;;;;;13.35;4.80;;;;;;;8.20;92.45;101373.06;5136703;27;20035;-54
2022/11/06 00:49:03;;;;;;;9.27;4.53;;;;;;;8.21;92.67;101371.25;5123665;27;20113;-53
2022/11/06 00:51:34;;;;;;;10.20;5.13;;;;;;;8.19;92.54;101371.34;5136248;28;20049;-53
2022/11/06 00:54:01;;;;;;;8.50;4.07;;;;;;;8.19;92.70;101384.56;5124325;28;20036;-53
2022/11/06 00:56:28;;;;;;;10.77;3.95;;;;;;;8.18;92.77;101384.66;5126954;28;20076;-53
2022/11/06 00:58:54;;;;;;;9.95;4.45;;;;;;;8.16;92.76;101374.19;5127092;27;20075;-55
2022/11/06 01:01:22;;;;;;;10.48;4.85;;;;;;;8.15;92.78;101393.63;5136454;28;20023;-55
2022/11/06 01:03:55;;;;;;;11.37;4.37;;;;;;;8.08;92.66;101379.06;5136779;27;20019;-52
2022/11/06 01:06:24;;;;;;;14.73;5.00;;;;;;;8.13;93.06;101395.53;5139879;27;20030;-53
2022/11/06 01:08:50;;;;;;;11.48;4.03;;;;;;;8.11;92.80;101387.66;5140878;28;20095;-54
2022/11/06 01:11:21;;;;;;;15.88;4.43;;;;;;;8.11;92.83;101385.03;5140554;27;20015;-55
2022/11/06 01:13:49;;;;;;;12.85;4.03;;;;;;;8.10;92.82;101393.06;5141110;28;20027;-52
2022/11/06 01:16:15;;;;;;;10.35;4.03;;;;;;;8.10;93.04;101385.13;5120416;28;20011;-56
2022/11/06 01:18:42;;;;;;;11.30;4.38;;;;;;;8.07;92.91;101380.84;5130183;28;20052;-53
2022/11/06 01:21:17;;;;;;;10.82;4.32;;;;;;;8.06;93.27;101379.16;5138613;28;20020;-53
2022/11/06 01:23:43;;;;;;;9.68;4.50;;;;;;;8.07;93.16;101374.69;5141074;27;20246;-55
2022/11/06 01:26:10;;;;;;;14.13;4.30;;;;;;;8.07;93.37;101382.63;5122314;28;20020;-55
2022/11/06 01:28:36;;;;;;;10.43;4.00;;;;;;;8.05;93.44;101377.44;5132852;28;20018;-54
2022/11/06 01:31:10;;;;;;;11.60;4.25;;;;;;;8.08;93.55;101363.19;5134369;28;20027;-53
2022/11/06 01:33:36;;;;;;;11.20;4.65;;;;;;;8.08;93.49;101363.19;5130405;28;20028;-52
2022/11/06 01:36:02;;;;;;;12.48;3.90;;;;;;;8.08;93.80;101357.91;5123916;28;20008;-51
2022/11/06 01:38:27;;;;;;;9.07;3.72;;;;;;;8.10;93.79;101356.00;5123601;28;20028;-54
2022/11/06 01:40:53;;;;;;;10.38;3.55;;;;;;;8.11;93.68;101347.13;5120673;28;20036;-53
2022/11/06 01:43:22;;;;;;;9.73;3.53;;;;;;;8.09;93.64;101341.06;5120809;28;20020;-53
2022/11/06 01:45:49;;;;;;;9.65;3.80;;;;;;;8.13;93.52;101346.09;5127076;28;20015;-53
2022/11/06 01:48:18;;;;;;;9.80;3.70;;;;;;;8.08;93.92;101342.88;5168899;22;20008;-83
2022/11/06 01:50:55;;;;;;;10.98;3.88;;;;;;;8.20;93.84;101358.97;5087627;28;20033;-83
2022/11/06 01:53:21;;;;;;;10.15;3.70;;;;;;;8.20;93.79;101348.38;5087933;28;20032;-83
2022/11/06 01:55:52;;;;;;;11.45;3.83;;;;;;;8.20;93.62;101345.75;5085352;28;20032;-83
2022/11/06 01:58:21;;;;;;;13.57;4.10;;;;;;;8.22;93.79;101343.84;5088631;28;20029;-83
2022/11/06 02:00:47;;;;;;;10.93;4.07;;;;;;;8.22;93.75;101338.56;5095884;28;20066;-83
2022/11/06 02:03:13;;;;;;;8.55;3.60;;;;;;;8.25;93.72;101339.22;5087950;28;20443;-83
2022/11/06 02:05:39;;;;;;;8.73;3.53;;;;;;;8.27;93.44;101339.97;5098321;28;20127;-83
2022/11/06 02:08:07;;;;;;;7.70;3.58;;;;;;;8.29;93.33;101334.59;5102487;28;20038;-82
2022/11/06 02:10:33;;;;;;;14.15;3.90;;;;;;;8.31;93.47;101333.59;5103697;28;20047;-83
2022/11/06 02:13:50;;;;;;;10.63;3.15;;;;;;;8.31;93.42;101327.41;5094974;28;20091;-83
2022/11/06 02:16:40;;;;;;;11.48;3.17;;;;;;;8.31;93.17;101320.34;5104619;28;20024;-83
2022/11/06 02:19:14;;;;;;;11.15;3.65;;;;;;;8.38;93.05;101326.13;5095432;28;20078;-84
2022/11/06 02:21:46;;;;;;;8.13;2.97;;;;;;;8.39;93.30;101324.31;5083347;28;20035;-82
2022/11/06 02:24:22;;;;;;;16.98;3.78;;;;;;;8.39;93.04;101313.72;5096988;28;20103;-83
2022/11/06 02:27:14;;;;;;;13.30;3.78;;;;;;;8.41;92.96;101318.00;5085673;28;20105;-82
2022/11/06 02:29:48;;;;;;;9.75;3.30;;;;;;;8.36;92.94;101309.50;5087568;28;20033;-83
2022/11/06 02:32:39;;;;;;;10.55;3.40;;;;;;;8.40;92.68;101310.16;5104036;28;20027;-83
2022/11/06 02:35:16;;;;;;;7.03;3.20;;;;;;;8.39;92.58;101311.94;5101114;28;20024;-82
2022/11/06 02:37:45;;;;;;;12.48;3.30;;;;;;;8.37;92.66;101305.03;5104273;28;20035;-82
2022/11/06 02:40:14;;;;;;;8.50;3.42;;;;;;;8.38;92.94;101304.13;5101317;28;20024;-83
2022/11/06 02:42:45;;;;;;;13.20;3.72;;;;;;;8.30;92.66;101297.47;5097366;28;20028;-82
2022/11/06 02:45:14;;;;;;;10.75;3.28;;;;;;;8.37;92.71;101305.03;5097816;28;20055;-83
2022/11/06 02:47:41;;;;;;;9.93;3.60;;;;;;;8.36;92.95;101312.13;5102461;28;20086;-83
2022/11/06 02:50:14;;;;;;;10.40;3.40;;;;;;;8.35;93.01;101310.44;5101315;28;20052;-82
2022/11/06 02:52:51;;;;;;;10.77;3.35;;;;;;;8.36;93.05;101303.31;5082372;28;20429;-82
2022/11/06 02:55:25;;;;;;;12.52;3.63;;;;;;;8.31;93.06;101309.75;5098197;28;20020;-82
2022/11/06 02:57:55;;;;;;;10.05;3.13;;;;;;;8.33;93.05;101297.28;5098632;28;20024;-83
2022/11/06 03:00:22;;;;;;;7.35;3.25;;;;;;;8.34;93.07;101303.41;5094291;28;20040;-82
2022/11/06 03:03:03;;;;;;;11.40;3.03;;;;;;;8.37;93.15;101319.13;5095813;28;20019;-83
2022/11/06 03:05:33;;;;;;;9.30;3.80;;;;;;;8.37;93.27;101312.97;5096618;28;20024;-83
2022/11/06 03:08:09;;;;;;;14.85;3.58;;;;;;;8.36;93.05;101316.56;5068873;28;20028;-82
2022/11/06 03:11:05;;;;;;;14.55;3.50;;;;;;;8.37;93.34;101332.34;5099314;28;20032;-82
2022/11/06 03:13:51;;;;;;;9.63;3.15;;;;;;;8.36;93.66;101319.22;5084632;28;20036;-82
2022/11/06 03:16:22;;;;;;;12.32;3.60;;;;;;;8.39;93.62;101314.56;5096227;28;20024;-83
2022/11/06 03:18:53;;;;;;;11.65;3.85;;;;;;;8.39;93.49;101301.34;5079307;28;20037;-82
2022/11/06 03:21:25;;;;;;;11.73;3.65;;;;;;;8.39;93.43;101308.44;5065060;28;20118;-82
2022/11/06 03:23:56;;;;;;;8.95;3.35;;;;;;;8.40;93.48;101304.88;5088183;28;20021;-83
2022/11/06 03:26:46;;;;;;;10.68;3.45;;;;;;;8.39;93.38;101281.97;5096058;28;20024;-82
2022/11/06 03:29:40;;;;;;;8.52;3.38;;;;;;;8.41;93.45;101280.06;5096174;28;20052;-82
2022/11/06 03:32:11;;;;;;;10.52;3.20;;;;;;;8.39;93.39;101282.81;5099412;28;20024;-83
2022/11/06 03:34:51;;;;;;;11.55;4.07;;;;;;;8.39;93.37;101280.16;5088277;28;20028;-82
2022/11/06 03:37:27;;;;;;;13.40;4.55;;;;;;;8.38;93.44;101280.28;5089755;28;20035;-82
2022/11/06 03:39:56;;;;;;;11.05;3.45;;;;;;;8.37;93.53;101270.63;5089959;28;20028;-82
2022/11/06 03:42:26;;;;;;;8.15;3.08;;;;;;;8.32;94.07;101257.66;5096445;28;20106;-83
2022/11/06 03:44:55;;;;;;;10.70;3.38;;;;;;;8.28;93.72;101257.00;5076567;28;20383;-82
2022/11/06 03:47:35;;;;;;;11.88;3.25;;;;;;;8.37;94.13;101255.59;5075853;28;20109;-82
2022/11/06 03:50:12;;;;;;;8.10;3.10;;;;;;;8.39;94.00;101251.06;5085164;28;20044;-82
2022/11/06 03:52:43;;;;;;;9.98;3.10;;;;;;;8.37;94.12;101246.81;5078007;28;20032;-82
2022/11/06 03:55:18;;;;;;;8.90;3.38;;;;;;;8.39;94.16;101239.63;5093907;28;20441;-82
2022/11/06 03:57:51;;;;;;;10.43;3.42;;;;;;;8.37;94.14;101231.78;5088640;28;20055;-81
2022/11/06 04:00:19;;;;;;;10.02;3.30;;;;;;;8.40;94.20;101230.75;5096830;28;20458;-82
2022/11/06 04:02:51;;;;;;;10.23;3.30;;;;;;;8.37;94.17;101229.13;5100081;28;20020;-82
2022/11/06 04:05:23;;;;;;;7.53;3.00;;;;;;;8.39;94.14;101229.88;5097866;28;20020;-83
2022/11/06 04:16:20;;;;;;;10.05;3.05;;;;;;;8.43;94.16;101233.25;5092841;28;20529;-81
2022/11/06 04:18:45;;;;;;;8.80;3.92;;;;;;;8.43;94.55;101217.38;5088388;28;20024;-82
2022/11/06 04:21:32;;;;;;;7.45;3.05;;;;;;;8.44;94.52;101214.63;5097885;28;20023;-82
2022/11/06 04:27:21;;;;;;;8.57;2.90;;;;;;;8.44;94.38;101211.09;5092811;28;20177;-82
2022/11/06 04:30:02;;;;;;;6.20;2.63;;;;;;;8.44;94.47;101208.47;5098666;28;20024;-82
2022/11/06 04:32:46;;;;;;;10.05;2.80;;;;;;;8.45;94.34;101210.16;5093371;28;20059;-83
2022/11/06 04:35:27;;;;;;;8.48;3.15;;;;;;;8.44;94.50;101211.09;5086253;28;20023;-82
2022/11/06 04:38:06;;;;;;;11.48;2.95;;;;;;;8.41;94.68;101203.31;5089879;28;20016;-82
2022/11/06 04:40:40;;;;;;;7.28;3.17;;;;;;;8.41;94.64;101204.19;5097005;28;20029;-82
2022/11/06 04:43:13;;;;;;;10.07;3.03;;;;;;;8.37;94.75;101193.88;5104771;28;20074;-81
2022/11/06 04:45:44;;;;;;;9.68;3.10;;;;;;;8.29;94.64;101189.91;5100391;28;20032;-82
2022/11/06 04:48:11;;;;;;;9.13;3.08;;;;;;;8.36;94.69;101205.41;5082715;28;20046;-82
2022/11/06 04:50:42;;;;;;;10.48;3.25;;;;;;;8.32;94.93;101192.34;5099087;28;20051;-82
2022/11/06 04:53:09;;;;;;;11.45;2.95;;;;;;;8.31;94.95;101192.44;5100962;28;20027;-83
2022/11/06 04:55:45;;;;;;;6.93;2.75;;;;;;;8.25;95.23;101183.09;5102297;28;20447;-82
2022/11/06 04:58:11;;;;;;;9.05;2.88;;;;;;;8.29;95.46;101189.91;5102921;28;20086;-82
2022/11/06 05:00:40;;;;;;;9.52;3.38;;;;;;;8.29;95.29;101181.97;5101513;28;20024;-82
2022/11/06 05:03:06;;;;;;;8.00;3.08;;;;;;;8.28;95.46;101171.50;5093340;28;20531;-83
2022/11/06 05:05:31;;;;;;;7.03;3.08;;;;;;;8.29;95.54;101174.03;5080555;28;20048;-82
2022/11/06 05:07:56;;;;;;;10.27;2.83;;;;;;;8.28;95.52;101180.25;5099793;28;20103;-82
2022/11/06 05:10:21;;;;;;;13.75;4.05;;;;;;;8.25;95.76;101172.50;5092349;28;20399;-82
2022/11/06 05:12:47;;;;;;;8.88;2.83;;;;;;;8.24;95.90;101176.09;5086265;28;20028;-82
2022/11/06 05:15:12;;;;;;;9.65;2.80;;;;;;;8.26;95.91;101161.00;5104639;28;20431;-82
2022/11/06 05:17:37;;;;;;;7.32;3.35;;;;;;;8.22;95.90;101162.09;5090961;28;20017;-82
2022/11/06 05:20:04;;;;;;;8.73;3.00;;;;;;;8.24;96.11;101165.50;5106001;28;20036;-82
2022/11/06 05:25:13;;;;;;;11.85;3.17;;;;;;;8.22;96.50;101151.53;5095964;28;20062;-82
2022/11/06 05:27:38;;;;;;;14.70;3.30;;;;;;;8.24;96.38;101154.06;5093545;28;20036;-82
2022/11/06 05:30:04;;;;;;;10.32;2.90;;;;;;;8.23;96.63;101161.19;5096417;28;20020;-82
2022/11/06 05:32:29;;;;;;;7.13;2.95;;;;;;;8.22;96.39;101154.16;5102285;28;20032;-82
2022/11/06 05:34:55;;;;;;;8.70;3.25;;;;;;;8.23;96.55;101153.25;5100463;28;20039;-82
2022/11/06 05:37:20;;;;;;;8.70;2.88;;;;;;;8.22;96.61;101159.47;5084723;28;20043;-82
2022/11/06 05:39:45;;;;;;;6.72;2.78;;;;;;;8.22;96.71;101155.97;5090830;28;20024;-82
2022/11/06 05:42:10;;;;;;;10.52;3.63;;;;;;;8.21;96.70;101147.19;5105135;28;20024;-81
2022/11/06 05:44:36;;;;;;;9.00;2.90;;;;;;;8.21;96.69;101149.84;5104778;28;20028;-81
2022/11/06 05:47:02;;;;;;;8.65;2.95;;;;;;;8.20;96.93;101153.44;5091367;28;20060;-81
2022/11/06 05:49:27;;;;;;;9.07;2.80;;;;;;;8.20;97.05;101153.44;5104048;28;20128;-81
2022/11/06 05:51:52;;;;;;;8.93;2.80;;;;;;;8.21;96.79;101148.97;5101659;28;20047;-81
2022/11/06 05:54:17;;;;;;;9.75;3.20;;;;;;;8.20;96.80;101147.28;5101949;28;20120;-82
2022/11/06 05:56:43;;;;;;;7.97;3.13;;;;;;;8.15;96.77;101132.53;5097949;28;20048;-82
2022/11/06 05:59:08;;;;;;;8.48;2.75;;;;;;;8.18;97.12;101138.56;5081284;28;20043;-82
2022/11/06 06:01:33;;;;;;;10.20;3.00;;;;;;;8.19;96.94;101130.53;5092093;28;20040;-81
2022/11/06 06:03:59;;;;;;;7.60;2.92;;;;;;;8.20;97.03;101131.41;5098720;28;20028;-81
2022/11/06 06:06:25;;;;;;;12.52;2.92;;;;;;;8.17;96.81;101129.78;5094770;28;20032;-82
2022/11/06 06:08:53;;;;;;;6.63;2.85;;;;;;;8.19;97.04;101135.00;5097329;28;20029;-82
2022/11/06 06:11:18;;;;;;;8.40;3.22;;;;;;;8.16;97.17;101130.75;5089503;28;20032;-81
2022/11/06 06:13:43;;;;;;;9.15;2.80;;;;;;;8.15;97.26;101126.41;5097791;28;20067;-82
2022/11/06 06:16:09;;;;;;;8.75;2.78;;;;;;;8.18;96.97;101131.50;5096930;28;20028;-82
2022/11/06 06:18:34;;;;;;;8.82;3.10;;;;;;;8.19;97.09;101127.06;5102421;28;20024;-81
2022/11/06 06:20:59;;;;;;;7.10;3.00;;;;;;;8.17;96.89;101121.84;5091667;28;20058;-81
2022/11/06 06:23:24;;;;;;;6.68;2.90;;;;;;;8.19;97.01;101125.25;5100011;28;20039;-82
2022/11/06 06:25:50;;;;;;;5.63;2.72;;;;;;;8.19;96.85;101124.41;5085818;28;20088;-81
2022/11/06 06:28:15;;;;;;;8.52;2.95;;;;;;;8.15;96.78;101121.94;5103771;28;20028;-81
2022/11/06 06:30:40;;;;;;;8.43;3.03;;;;;;;8.14;96.71;101122.03;5091079;28;20060;-81
2022/11/06 06:33:06;;;;;;;9.55;2.75;;;;;;;8.13;96.65;101125.66;5096541;28;20027;-82
2022/11/06 06:35:32;;;;;;;11.10;3.17;;;;;;;8.14;96.71;101125.56;5100103;28;20467;-81
2022/11/06 06:37:57;;;;;;;6.97;2.70;;;;;;;8.15;96.84;101134.34;5105700;28;20130;-82
2022/11/06 06:40:22;;;;;;;5.82;2.80;;;;;;;8.16;96.88;101138.69;5102183;28;20100;-81
2022/11/06 06:42:48;;;;;;;8.10;2.70;;;;;;;8.18;96.82;101134.16;5103261;28;20046;-82
2022/11/06 06:45:14;;;;;;;9.25;2.70;;;;;;;8.18;96.81;101142.09;5093734;28;20491;-82
2022/11/06 06:47:39;;;;;;;9.45;3.40;;;;;;;8.18;96.65;101134.16;5092707;28;20028;-82
2022/11/06 06:50:05;;;;;;;10.85;2.75;;;;;;;8.18;96.84;101134.16;5093189;28;20048;-82
2022/11/06 06:52:30;;;;;;;6.95;2.80;;;;;;;8.18;96.79;101131.50;5103755;28;20028;-81
2022/11/06 06:54:55;;;;;;;9.73;3.03;;;;;;;8.21;96.76;101122.50;5101782;28;20028;-82
2022/11/06 06:57:21;;;;;;;8.55;2.88;;;;;;;8.20;96.76;101113.72;5102561;28;20016;-81
2022/11/06 06:59:46;;;;;;;8.38;3.00;;;;;;;8.23;96.86;101110.91;5102492;28;20339;-81
2022/11/06 07:02:12;;;;;;;10.32;2.75;;;;;;;8.26;96.80;101116.00;5096332;28;20173;-81
2022/11/06 07:04:37;;;;;;;7.75;2.35;;;;;;;8.29;96.95;101118.47;5096577;28;20016;-82
2022/11/06 07:07:02;;;;;;;7.25;2.53;;;;;;;8.31;96.83;101119.22;5095392;28;20043;-82
2022/11/06 07:09:31;;;;;;;7.05;2.50;;;;;;;8.37;96.88;101128.56;5093876;28;20028;-82
2022/11/06 07:11:57;;;;;;;8.80;2.78;;;;;;;8.41;97.00;101127.44;5103079;28;20028;-81
2022/11/06 07:14:22;;;;;;;6.93;2.60;;;;;;;8.44;96.80;101119.34;5091849;28;20178;-80
2022/11/06 07:16:47;;;;;;;7.63;2.72;;;;;;;8.47;96.76;101108.53;5081229;28;20020;-81
2022/11/06 07:19:13;;;;;;;9.05;3.03;;;;;;;8.52;96.55;101106.44;5099480;28;20031;-82
2022/11/06 07:21:38;;;;;;;18.13;5.05;;;;;;;8.58;96.63;101113.16;5087236;28;20031;-80
2022/11/06 07:24:04;;;;;;;6.70;2.67;;;;;;;8.60;96.49;101113.06;5100482;28;20066;-81
2022/11/06 07:26:29;;;;;;;7.20;2.53;;;;;;;8.65;96.38;101111.78;5092794;28;20577;-82
2022/11/06 07:28:54;;;;;;;8.25;2.60;;;;;;;8.70;96.16;101115.00;5096736;28;20049;-81
2022/11/06 07:31:20;;;;;;;9.40;2.72;;;;;;;8.76;95.96;101116.41;5086918;28;20075;-82
2022/11/06 07:33:45;;;;;;;6.07;2.50;;;;;;;8.80;95.65;101122.38;5079999;28;20032;-82
2022/11/06 07:36:12;;;;;;;6.45;2.85;;;;;;;8.86;95.84;101121.97;5081514;28;20040;-82
2022/11/06 07:38:39;;;;;;;10.32;2.70;;;;;;;8.89;95.54;101119.97;5100019;28;20040;-82
2022/11/06 07:41:10;;;;;;;6.57;2.60;;;;;;;8.93;95.60;101123.25;5093596;28;20043;-82
2022/11/06 07:43:36;;;;;;;10.38;2.60;;;;;;;8.97;94.94;101105.38;5096283;28;20371;-82
2022/11/06 07:46:03;;;;;;;8.20;2.75;;;;;;;9.02;95.08;101104.09;5095453;28;20057;-82
2022/11/06 07:48:29;;;;;;;7.28;2.58;;;;;;;9.06;94.55;101092.38;5091946;28;20379;-82
2022/11/06 07:50:55;;;;;;;8.25;2.28;;;;;;;9.09;94.73;101093.94;5099039;28;20038;-81
2022/11/06 07:53:22;;;;;;;7.05;2.97;;;;;;;9.17;94.25;101096.94;5099545;28;20099;-80
2022/11/06 07:55:49;;;;;;;9.57;2.42;;;;;;;9.19;93.99;101092.41;5086072;28;20027;-81
2022/11/06 07:58:16;;;;;;;5.95;2.70;;;;;;;9.23;94.08;101083.28;5102521;28;20044;-81
2022/11/06 08:00:49;;;;;;;7.18;2.55;;;;;;;9.24;93.71;101063.78;5102300;28;20024;-82
2022/11/06 08:03:15;;;;;;;5.88;2.10;;;;;;;9.30;93.81;101080.22;5094926;28;20055;-81
2022/11/06 08:05:42;;;;;;;6.30;2.20;;;;;;;9.32;94.05;101081.81;5107870;28;20042;-81
2022/11/06 08:08:08;;;;;;;11.23;2.97;;;;;;;9.35;93.66;101086.06;5104956;28;20109;-81
2022/11/06 08:10:36;;;;;;;6.95;2.83;;;;;;;9.37;93.48;101084.16;5099346;28;20024;-81
2022/11/06 08:13:02;;;;;;;4.90;2.05;;;;;;;9.37;93.47;101077.03;5097327;28;20106;-83
2022/11/06 08:15:27;;;;;;;9.65;2.60;;;;;;;9.44;93.01;101074.81;5095456;28;20028;-83
2022/11/06 08:17:52;;;;;;;6.63;2.20;;;;;;;9.44;92.85;101080.13;5108128;28;20043;-82
2022/11/06 08:20:18;;;;;;;8.68;2.53;;;;;;;9.53;92.86;101083.97;5102044;28;20028;-82
2022/11/06 08:22:43;;;;;;;6.05;2.03;;;;;;;9.56;92.49;101078.44;5103631;28;20115;-82
2022/11/06 08:25:09;;;;;;;7.55;2.45;;;;;;;9.57;92.24;101070.38;5101926;28;20020;-82
2022/11/06 08:27:34;;;;;;;8.77;2.38;;;;;;;9.62;92.11;101072.72;5101110;28;20055;-82
2022/11/06 08:30:00;;;;;;;7.70;2.55;;;;;;;9.67;91.50;101064.44;5102618;28;20024;-83
2022/11/06 08:32:27;;;;;;;7.35;2.47;;;;;;;9.73;91.55;101066.69;5106140;28;20051;-82
2022/11/06 08:34:52;;;;;;;5.07;2.30;;;;;;;9.75;91.72;101057.66;5097336;28;20066;-82
2022/11/06 08:37:19;;;;;;;7.95;2.38;;;;;;;9.79;91.46;101051.19;5098669;28;20032;-82
2022/11/06 08:39:45;;;;;;;5.80;2.50;;;;;;;9.87;91.01;101055.09;5093487;28;20148;-82
2022/11/06 08:42:10;;;;;;;5.40;2.20;;;;;;;9.95;90.73;101056.25;5093005;28;20043;-82
2022/11/06 08:44:36;;;;;;;7.70;2.25;;;;;;;10.00;91.09;101055.94;5096774;28;20135;-83
2022/11/06 08:47:01;;;;;;;5.05;1.85;;;;;;;10.02;89.79;101054.00;5095270;28;20032;-83
2022/11/06 08:49:26;;;;;;;9.32;2.38;;;;;;;10.02;89.87;101046.03;5071662;28;20048;-83
2022/11/06 08:51:53;;;;;;;8.13;2.25;;;;;;;10.02;89.50;101046.03;5092403;28;20040;-83
2022/11/06 08:54:21;;;;;;;6.30;2.15;;;;;;;10.08;89.85;101045.63;5095728;28;20348;-82
2022/11/06 08:56:47;;;;;;;9.07;2.20;;;;;;;10.12;89.44;101040.94;5114617;28;20104;-82
2022/11/06 08:59:13;;;;;;;5.07;2.08;;;;;;;10.19;89.01;101039.53;5101273;28;20031;-82
2022/11/06 09:01:38;;;;;;;6.55;2.33;;;;;;;10.25;88.97;101046.22;5099772;28;20478;-82
2022/11/06 09:04:05;;;;;;;4.47;2.42;;;;;;;10.28;88.07;101030.06;5093493;28;20024;-82
2022/11/06 09:06:30;;;;;;;7.80;2.28;;;;;;;10.34;88.60;101034.94;5083460;28;20360;-82
2022/11/06 09:08:55;;;;;;;8.40;2.50;;;;;;;10.36;87.71;101019.78;5078863;28;20078;-82
2022/11/06 09:11:21;;;;;;;5.00;2.00;;;;;;;10.41;86.26;101012.31;5079147;28;20028;-82
2022/11/06 09:13:46;;;;;;;5.25;2.28;;;;;;;10.42;86.92;101018.47;5082245;28;20028;-80
2022/11/06 09:16:11;;;;;;;7.38;2.22;;;;;;;10.46;86.62;101012.84;5093059;28;20032;-83
2022/11/06 09:18:37;;;;;;;7.32;2.17;;;;;;;10.51;86.98;101009.84;5078652;28;20111;-83
2022/11/06 09:21:02;;;;;;;7.53;2.05;;;;;;;10.53;86.25;100999.94;5095035;28;20024;-82
2022/11/06 09:23:27;;;;;;;6.00;2.10;;;;;;;10.57;86.60;100998.75;5101056;28;20027;-81
2022/11/06 09:25:53;;;;;;;5.90;2.10;;;;;;;10.64;86.79;100994.69;5101454;28;20099;-82
2022/11/06 09:28:21;;;;;;;3.55;1.80;;;;;;;10.73;85.59;100988.69;5083886;28;20055;-82
2022/11/06 09:30:47;;;;;;;5.35;2.08;;;;;;;10.82;86.11;100984.47;5110283;28;20046;-82
2022/11/06 09:33:13;;;;;;;5.28;1.58;;;;;;;10.87;85.13;100979.66;5108556;28;20110;-81
2022/11/06 09:35:38;;;;;;;6.03;1.90;;;;;;;10.91;84.88;100975.81;5105978;28;20070;-82
2022/11/06 09:38:06;;;;;;;5.88;2.00;;;;;;;10.92;83.99;100979.31;5104505;28;20072;-82
2022/11/06 09:40:42;;;;;;;6.18;2.15;;;;;;;10.95;84.13;100983.56;5099351;28;20039;-81
2022/11/06 09:43:21;;;;;;;4.90;2.13;;;;;;;10.95;83.73;100979.09;5106565;28;20390;-81
2022/11/06 09:45:48;;;;;;;4.60;2.15;;;;;;;11.02;83.87;100979.47;5083326;28;20040;-82
2022/11/06 09:48:25;;;;;;;5.03;2.22;;;;;;;11.08;83.52;100981.66;5088849;28;20045;-81
2022/11/06 09:51:21;;;;;;;3.15;1.60;;;;;;;11.11;83.53;100963.66;5091617;28;20545;-81
2022/11/06 09:53:55;;;;;;;5.70;2.10;;;;;;;11.13;82.76;100962.72;5105341;28;20355;-81
2022/11/06 09:56:24;;;;;;;4.82;2.00;;;;;;;11.20;82.38;100977.22;5108947;28;20026;-81
2022/11/06 09:58:51;;;;;;;8.10;1.92;;;;;;;11.18;81.71;100966.69;5103696;28;20022;-82
2022/11/06 10:01:21;;;;;;;7.35;1.95;;;;;;;11.21;82.16;100973.59;5096704;28;20041;-82
2022/11/06 10:03:55;;;;;;;10.35;2.20;;;;;;;11.27;82.48;100960.69;5101108;28;20108;-82
2022/11/06 10:06:22;;;;;;;6.82;1.90;;;;;;;11.34;81.45;100969.03;5088284;28;20016;-82
2022/11/06 10:08:48;;;;;;;8.27;1.85;;;;;;;11.41;81.57;100967.56;5094954;28;20027;-81
2022/11/06 10:11:13;;;;;;;6.13;2.45;;;;;;;11.48;81.48;100963.44;5096145;28;20028;-81
2022/11/06 10:14:06;;;;;;;4.23;1.70;;;;;;;11.56;81.79;100956.69;5098900;28;20119;-81
2022/11/06 10:16:37;;;;;;;8.18;2.15;;;;;;;11.62;81.02;100959.72;5101140;28;20051;-81
2022/11/06 10:19:10;;;;;;;5.85;2.00;;;;;;;11.64;79.83;100957.78;5099726;28;20035;-81
2022/11/06 10:21:42;;;;;;;7.68;1.90;;;;;;;11.59;79.88;100956.44;5106165;28;20126;-82
2022/11/06 10:24:21;;;;;;;3.97;2.10;;;;;;;11.53;79.30;100948.97;5101864;28;20032;-82
2022/11/06 10:26:53;;;;;;;5.43;2.00;;;;;;;11.46;79.50;100936.13;5097292;28;20845;-81
2022/11/06 10:29:39;;;;;;;9.15;2.33;;;;;;;11.46;79.43;100941.44;5070837;28;20293;-81
2022/11/06 10:32:34;;;;;;;6.43;2.25;;;;;;;11.50;80.00;100946.53;5097433;28;20024;-82
2022/11/06 10:35:07;;;;;;;7.10;1.92;;;;;;;11.43;79.96;100935.53;5098190;28;20042;-81
2022/11/06 10:37:43;;;;;;;6.00;2.10;;;;;;;11.43;79.42;100931.06;5070266;28;20059;-82
2022/11/06 10:40:17;;;;;;;8.25;2.30;;;;;;;11.45;79.72;100928.28;5094168;28;20495;-82
2022/11/06 10:42:49;;;;;;;6.10;2.05;;;;;;;11.45;78.88;100922.97;5083465;28;20036;-81
2022/11/06 10:45:16;;;;;;;4.68;1.92;;;;;;;11.49;79.00;100919.09;5097612;28;20031;-82
2022/11/06 10:47:52;;;;;;;6.28;2.05;;;;;;;11.55;79.19;100907.94;5093236;28;20031;-81
2022/11/06 10:50:17;;;;;;;8.77;2.15;;;;;;;11.57;78.49;100908.66;5084005;28;20097;-81
2022/11/06 10:53:00;;;;;;;8.57;2.08;;;;;;;11.63;78.54;100896.72;5099512;28;20107;-81
2022/11/06 10:55:34;;;;;;;8.00;2.00;;;;;;;11.72;77.87;100895.94;5087723;28;20028;-80
2022/11/06 10:58:06;;;;;;;7.18;1.85;;;;;;;11.78;77.96;100884.81;5093823;28;20028;-80
2022/11/06 11:00:32;;;;;;;5.65;1.75;;;;;;;11.84;77.20;100878.16;5089667;28;20090;-80
2022/11/06 11:03:00;;;;;;;6.15;2.28;;;;;;;11.89;77.18;100870.66;5093194;28;20043;-81
2022/11/06 11:05:40;;;;;;;7.28;2.33;;;;;;;11.94;77.11;100871.16;5100345;28;20024;-80
2022/11/06 11:08:05;;;;;;;;;;;;;;;11.99;79.06;100868.97;5117700;28;20040;-81
2022/11/06 11:10:35;;;;;;;5.50;1.95;;;;;;;11.98;76.92;100864.59;5101115;28;20010;-80
2022/11/06 11:13:04;;;;;;;4.47;2.00;;;;;;;11.97;76.59;100862.06;5069488;28;20040;-81
2022/11/06 11:15:42;;;;;;;6.82;1.83;;;;;;;12.03;76.69;100870.38;5096441;28;20022;-82
2022/11/06 11:18:15;;;;;;;6.55;1.77;;;;;;;12.02;76.02;100868.72;5094812;28;20545;-82
2022/11/06 11:21:02;;;;;;;12.35;2.13;;;;;;;12.05;76.29;100866.75;5094582;28;20027;-82
2022/11/06 11:23:27;;;;;;;8.70;1.92;;;;;;;12.02;75.77;100857.19;5095562;28;20043;-82
2022/11/06 11:25:56;;;;;;;8.27;2.28;;;;;;;12.00;75.16;100843.16;5096051;28;20027;-81
2022/11/06 11:28:29;;;;;;;7.73;2.07;;;;;;;12.01;75.21;100848.38;5091368;28;20044;-81
2022/11/06 11:31:05;;;;;;;6.75;1.98;;;;;;;12.02;75.57;100844.75;5095858;28;20302;-82
2022/11/06 11:33:31;;;;;;;7.70;1.92;;;;;;;12.00;73.95;100836.03;5101457;28;20023;-83
2022/11/06 11:35:57;;;;;;;7.88;1.77;;;;;;;12.01;73.20;100836.88;5098241;28;20103;-82
2022/11/06 11:38:24;;;;;;;8.30;2.13;;;;;;;11.98;72.95;100832.66;5111430;28;20075;-83
2022/11/06 11:40:50;;;;;;;6.35;1.80;;;;;;;11.89;72.10;100830.72;5106930;28;20028;-81
2022/11/06 11:43:22;;;;;;;7.35;1.80;;;;;;;11.87;73.20;100830.00;5100845;28;20044;-82
2022/11/06 11:46:07;;;;;;;5.85;1.80;;;;;;;11.91;73.91;100838.59;5094268;28;20123;-81
2022/11/06 11:48:54;;;;;;;3.97;1.73;;;;;;;11.91;74.09;100835.94;5098998;28;20031;-81
2022/11/06 11:51:34;;;;;;;7.22;2.40;;;;;;;11.91;73.11;100838.59;5101243;28;20072;-80
2022/11/06 11:54:05;;;;;;;8.10;2.05;;;;;;;11.92;73.13;100824.31;5106409;28;20127;-81
2022/11/06 11:56:31;;;;;;;5.43;1.98;;;;;;;11.89;72.06;100819.22;5077837;28;20035;-80